Time;durP1;ratioP1;P1;durP2;ratioP2;P2;SDS_P1;SDS_P2;PMS_P1;PMS_P2;Temp;Humidity;BMP_temperature;BMP_pressure;BME280_temperature;BME280_humidity;BME280_pressure;Samples;Min_cycle;Max_cycle;Signal;HPM_P1;HPM_P2
2023/09/26 00:04:00;;;;;;;;;;;;;;;21.52;50.52;96261.97;10525951;28;1985;-69
2023/09/26 00:09:01;;;;;;;;;;;;;;;21.51;50.66;96265.69;10543210;28;1710;-68
2023/09/26 00:14:03;;;;;;;;;;;;;;;21.50;50.43;96264.88;10534990;28;1814;-68
2023/09/26 00:19:04;;;;;;;;;;;;;;;21.49;50.66;96265.97;10522027;28;1752;-68
2023/09/26 00:24:04;;;;;;;;;;;;;;;21.50;50.70;96264.09;10526452;28;2093;-66
2023/09/26 00:29:05;;;;;;;;;;;;;;;21.49;50.54;96251.97;10553016;27;2672;-68
2023/09/26 00:34:05;;;;;;;;;;;;;;;21.48;50.48;96251.19;10524151;28;1930;-68
2023/09/26 00:39:05;;;;;;;;;;;;;;;21.48;50.69;96245.91;10522581;28;1827;-68
2023/09/26 00:44:07;;;;;;;;;;;;;;;21.47;50.54;96254.09;10529935;28;4653;-68
2023/09/26 00:49:07;;;;;;;;;;;;;;;21.46;50.63;96257.75;10532748;28;2002;-68
2023/09/26 00:54:09;;;;;;;;;;;;;;;21.46;50.57;96255.94;10525332;28;1894;-68
2023/09/26 00:59:09;;;;;;;;;;;;;;;21.45;50.34;96251.69;10533725;28;1920;-68
2023/09/26 01:04:09;;;;;;;;;;;;;;;21.45;50.61;96245.66;10508187;28;1922;-68
2023/09/26 01:09:10;;;;;;;;;;;;;;;21.45;50.57;96240.38;10533811;28;1921;-68
2023/09/26 01:14:10;;;;;;;;;;;;;;;21.44;50.40;96234.31;10533769;28;2337;-68
2023/09/26 01:19:10;;;;;;;;;;;;;;;21.44;50.37;96233.50;10516697;28;2032;-68
2023/09/26 01:24:11;;;;;;;;;;;;;;;21.43;50.23;96235.34;10528434;28;1965;-69
2023/09/26 01:29:11;;;;;;;;;;;;;;;21.42;50.46;96233.78;10526611;28;1942;-68
2023/09/26 01:34:11;;;;;;;;;;;;;;;21.43;50.39;96237.97;10531669;28;1891;-68
2023/09/26 01:39:12;;;;;;;;;;;;;;;21.42;50.13;96223.22;10544497;28;1919;-68
2023/09/26 01:44:13;;;;;;;;;;;;;;;21.41;50.46;96231.41;10526016;28;4570;-68
2023/09/26 01:49:13;;;;;;;;;;;;;;;21.41;50.40;96228.78;10534640;28;1949;-68
2023/09/26 01:54:13;;;;;;;;;;;;;;;21.41;50.44;96234.06;10518250;28;1929;-68
2023/09/26 01:59:13;;;;;;;;;;;;;;;21.41;50.32;96234.06;10523351;28;2385;-69
2023/09/26 02:04:14;;;;;;;;;;;;;;;21.39;50.09;96217.72;10532090;28;1977;-69
2023/09/26 02:09:14;;;;;;;;;;;;;;;21.38;50.55;96216.91;10515288;28;2052;-68
2023/09/26 02:14:14;;;;;;;;;;;;;;;21.38;50.49;96227.47;10560186;27;1983;-68
2023/09/26 02:19:15;;;;;;;;;;;;;;;21.37;50.56;96225.88;10520553;28;1855;-68
2023/09/26 02:24:15;;;;;;;;;;;;;;;21.38;50.54;96221.38;10534292;28;1964;-68
2023/09/26 02:29:15;;;;;;;;;;;;;;;21.37;50.16;96233.78;10538486;28;1869;-69
2023/09/26 02:34:19;;;;;;;;;;;;;;;21.37;50.35;96227.72;10538661;28;1721;-69
2023/09/26 02:39:19;;;;;;;;;;;;;;;21.36;49.99;96234.06;10530151;28;1902;-66
2023/09/26 02:44:19;;;;;;;;;;;;;;;21.36;50.27;96226.13;10514323;28;4548;-68
2023/09/26 02:49:19;;;;;;;;;;;;;;;21.34;50.37;96229.06;10542809;28;1866;-69
2023/09/26 02:54:20;;;;;;;;;;;;;;;21.34;50.03;96229.06;10555173;27;1886;-68
2023/09/26 02:59:22;;;;;;;;;;;;;;;21.33;50.13;96221.41;10527636;28;2082;-68
2023/09/26 03:04:23;;;;;;;;;;;;;;;21.34;50.16;96217.72;10534851;28;1918;-68
2023/09/26 03:09:23;;;;;;;;;;;;;;;21.32;50.37;96210.06;10533188;28;1958;-68
2023/09/26 03:14:23;;;;;;;;;;;;;;;21.33;50.09;96202.97;10536743;28;2001;-68
2023/09/26 03:19:24;;;;;;;;;;;;;;;21.32;50.09;96206.63;10534144;28;1897;-68
2023/09/26 03:24:24;;;;;;;;;;;;;;;21.32;50.23;96204.78;10536283;28;1914;-68
2023/09/26 03:29:24;;;;;;;;;;;;;;;21.32;50.06;96193.44;10535719;28;1958;-68
2023/09/26 03:34:24;;;;;;;;;;;;;;;21.31;50.03;96191.88;10533955;28;3113;-68
2023/09/26 03:39:25;;;;;;;;;;;;;;;21.31;49.93;96195.28;10518747;28;1901;-68
2023/09/26 03:44:25;;;;;;;;;;;;;;;21.30;50.22;96195.56;10528019;28;4593;-68
2023/09/26 03:49:25;;;;;;;;;;;;;;;21.30;50.00;96199.00;10526443;28;1849;-67
2023/09/26 03:54:27;;;;;;;;;;;;;;;21.30;50.09;96196.38;10541673;28;1970;-68
2023/09/26 03:59:30;;;;;;;;;;;;;;;21.30;50.02;96198.19;10533958;28;1878;-69
2023/09/26 04:04:31;;;;;;;;;;;;;;;21.29;50.10;96194.78;10529136;28;1938;-68
2023/09/26 04:09:32;;;;;;;;;;;;;;;21.28;50.05;96198.47;10530720;28;1851;-68
2023/09/26 04:14:32;;;;;;;;;;;;;;;21.28;50.18;96197.69;10524744;28;1792;-68
2023/09/26 04:19:33;;;;;;;;;;;;;;;21.29;49.84;96196.63;10531469;28;2680;-68
2023/09/26 04:24:33;;;;;;;;;;;;;;;21.28;50.12;96202.94;10531587;28;1942;-67
2023/09/26 04:29:34;;;;;;;;;;;;;;;21.27;50.02;96193.47;10529851;28;1878;-69
2023/09/26 04:34:34;;;;;;;;;;;;;;;21.24;49.93;96192.16;10518236;28;2063;-68
2023/09/26 04:39:34;;;;;;;;;;;;;;;21.25;49.84;96188.44;10527953;28;1866;-68
2023/09/26 04:44:34;;;;;;;;;;;;;;;21.25;50.06;96187.66;10532854;28;4589;-68
2023/09/26 04:49:35;;;;;;;;;;;;;;;21.24;50.05;96186.88;10521322;28;1816;-69
2023/09/26 04:54:35;;;;;;;;;;;;;;;21.24;50.00;96191.38;10530887;28;1812;-68
2023/09/26 04:59:35;;;;;;;;;;;;;;;21.24;49.97;96201.91;10536469;28;1682;-68
2023/09/26 05:04:36;;;;;;;;;;;;;;;21.24;49.88;96199.28;10525594;28;2551;-67
2023/09/26 05:09:39;;;;;;;;;;;;;;;21.23;49.91;96201.09;10512566;28;1879;-68
2023/09/26 05:14:39;;;;;;;;;;;;;;;21.25;49.66;96206.09;10522389;27;1831;-68
2023/09/26 05:19:39;;;;;;;;;;;;;;;21.23;50.00;96200.31;10527853;28;2025;-67
2023/09/26 05:24:40;;;;;;;;;;;;;;;21.23;50.05;96206.38;10536685;28;1921;-68
2023/09/26 05:29:40;;;;;;;;;;;;;;;21.23;49.97;96210.84;10507572;28;1851;-68
2023/09/26 05:34:40;;;;;;;;;;;;;;;21.23;49.64;96197.69;10536971;28;1970;-67
2023/09/26 05:39:40;;;;;;;;;;;;;;;21.23;49.93;96198.47;10533814;27;1922;-70
2023/09/26 05:44:41;;;;;;;;;;;;;;;21.34;49.52;96194.78;10541138;28;4596;-75
2023/09/26 05:49:41;;;;;;;;;;;;;;;21.47;49.56;96202.13;10524783;28;1884;-75
2023/09/26 05:54:41;;;;;;;;;;;;;;;21.59;49.68;96199.19;10576307;27;1734;-75
2023/09/26 05:59:41;;;;;;;;;;;;;;;21.68;49.28;96201.00;10537026;28;1820;-72
2023/09/26 06:04:44;;;;;;;;;;;;;;;21.80;48.96;96208.63;10532383;28;2567;-71
2023/09/26 06:09:44;;;;;;;;;;;;;;;21.88;48.86;96208.09;10542206;28;1824;-71
2023/09/26 06:14:46;;;;;;;;;;;;;;;21.98;48.67;96204.59;10532313;28;1852;-75
2023/09/26 06:19:46;;;;;;;;;;;;;;;22.02;48.48;96209.06;10535817;27;1780;-73
2023/09/26 06:24:47;;;;;;;;;;;;;;;22.09;48.20;96204.25;10530600;28;1991;-73
2023/09/26 06:29:47;;;;;;;;;;;;;;;22.12;48.00;96214.28;10544674;28;1903;-72
2023/09/26 06:34:47;;;;;;;;;;;;;;;22.14;47.67;96208.75;10529972;28;1945;-70
2023/09/26 06:39:48;;;;;;;;;;;;;;;22.15;47.62;96208.50;10525974;28;1908;-70
2023/09/26 06:44:49;;;;;;;;;;;;;;;22.19;47.48;96208.72;10528834;28;4689;-71
2023/09/26 06:49:49;;;;;;;;;;;;;;;22.22;47.45;96213.44;10523462;28;2499;-72
2023/09/26 06:54:50;;;;;;;;;;;;;;;22.23;47.49;96220.31;10531797;28;2004;-71
2023/09/26 06:59:51;;;;;;;;;;;;;;;22.23;47.71;96213.19;10532633;28;1938;-70
2023/09/26 07:04:56;;;;;;;;;;;;;;;22.26;47.23;96219.75;10534837;28;2012;-72
2023/09/26 07:09:56;;;;;;;;;;;;;;;22.25;47.57;96216.34;10520142;28;2221;-69
2023/09/26 07:14:56;;;;;;;;;;;;;;;22.27;47.30;96211.59;10525615;28;1908;-69
2023/09/26 07:19:59;;;;;;;;;;;;;;;22.28;47.34;96213.16;10513365;28;1917;-71
2023/09/26 07:25:00;;;;;;;;;;;;;;;22.28;47.25;96220.28;10522047;28;1945;-68
2023/09/26 07:30:00;;;;;;;;;;;;;;;22.29;47.46;96222.66;10530719;28;2198;-75
2023/09/26 07:35:00;;;;;;;;;;;;;;;22.31;47.34;96225.03;10535150;28;1927;-71
2023/09/26 07:40:04;;;;;;;;;;;;;;;22.33;47.16;96222.91;10525873;28;4594;-76
2023/09/26 07:45:05;;;;;;;;;;;;;;;22.33;47.35;96228.97;10538640;28;1987;-75
2023/09/26 07:50:06;;;;;;;;;;;;;;;22.27;47.42;96227.44;10535022;28;2348;-67
2023/09/26 07:55:06;;;;;;;;;;;;;;;22.20;47.48;96226.94;10526540;28;1924;-67
2023/09/26 08:00:11;;;;;;;;;;;;;;;22.11;47.57;96236.50;10527111;28;1815;-68
2023/09/26 08:05:11;;;;;;;;;;;;;;;22.02;47.80;96232.03;10535253;28;2023;-65
2023/09/26 08:10:12;;;;;;;;;;;;;;;21.92;48.16;96232.88;10531227;28;1768;-81
2023/09/26 08:15:13;;;;;;;;;;;;;;;21.86;48.37;96234.72;10517742;28;1875;-69
2023/09/26 08:20:14;;;;;;;;;;;;;;;21.80;48.52;96230.50;10530755;28;1972;-75
2023/09/26 08:25:14;;;;;;;;;;;;;;;21.74;48.50;96234.22;10516037;28;1910;-74
2023/09/26 08:30:14;;;;;;;;;;;;;;;21.70;48.38;96237.69;10535880;28;1835;-74
2023/09/26 08:35:15;;;;;;;;;;;;;;;21.65;48.88;96238.47;10527108;28;2599;-75
2023/09/26 08:40:15;;;;;;;;;;;;;;;21.63;48.93;96237.97;10523603;28;4526;-77
2023/09/26 08:45:15;;;;;;;;;;;;;;;21.60;48.95;96230.56;10536294;28;1886;-75
2023/09/26 08:50:15;;;;;;;;;;;;;;;21.59;49.09;96233.47;10515226;28;1834;-74
2023/09/26 08:55:16;;;;;;;;;;;;;;;21.57;48.90;96227.69;10529363;28;1901;-75
2023/09/26 09:00:17;;;;;;;;;;;;;;;21.55;49.25;96225.31;10561638;27;1767;-74
2023/09/26 09:05:18;;;;;;;;;;;;;;;21.54;49.11;96230.84;10515788;28;1906;-75
2023/09/26 09:10:18;;;;;;;;;;;;;;;21.53;49.19;96230.06;10565199;27;1836;-74
2023/09/26 09:15:19;;;;;;;;;;;;;;;21.53;49.37;96224.00;10540848;28;1768;-75
2023/09/26 09:20:28;;;;;;;;;;;;;;;21.53;49.28;96216.09;10523969;28;1856;-75
2023/09/26 09:25:33;;;;;;;;;;;;;;;21.52;49.58;96214.50;10538286;28;1969;-74
2023/09/26 09:30:42;;;;;;;;;;;;;;;21.52;49.36;96220.56;10534566;28;1884;-76
2023/09/26 09:35:43;;;;;;;;;;;;;;;21.52;49.55;96211.84;10531680;28;1871;-81
2023/09/26 09:40:43;;;;;;;;;;;;;;;21.54;49.39;96207.91;10519360;28;4534;-73
2023/09/26 09:45:43;;;;;;;;;;;;;;;21.54;49.47;96207.09;10530071;28;1937;-74
2023/09/26 09:50:44;;;;;;;;;;;;;;;21.53;49.48;96200.25;10509071;28;2774;-73
2023/09/26 09:55:44;;;;;;;;;;;;;;;21.52;49.50;96199.47;10524816;28;1826;-70
2023/09/26 10:00:44;;;;;;;;;;;;;;;21.53;49.63;96198.41;10527972;28;1848;-72
2023/09/26 10:05:45;;;;;;;;;;;;;;;21.54;49.67;96197.34;10531675;28;1942;-76
2023/09/26 10:10:45;;;;;;;;;;;;;;;21.52;49.52;96202.09;10534343;28;1920;-74
2023/09/26 10:16:02;;;;;;;;;;;;;;;21.54;49.57;96199.19;10512462;28;1816;-74
2023/09/26 10:21:03;;;;;;;;;;;;;;;21.54;49.54;96199.19;10523259;28;1760;-76
2023/09/26 10:26:03;;;;;;;;;;;;;;;21.55;49.75;96187.59;10569329;27;1914;-74
2023/09/26 10:31:04;;;;;;;;;;;;;;;21.55;49.65;96191.03;10531680;28;1824;-70
2023/09/26 10:36:04;;;;;;;;;;;;;;;21.56;49.56;96194.44;10525306;28;2855;-76
2023/09/26 10:41:04;;;;;;;;;;;;;;;21.56;49.56;96186.53;10509911;28;4714;-74
2023/09/26 10:46:04;;;;;;;;;;;;;;;21.56;49.84;96189.16;10531091;28;1945;-75
2023/09/26 10:51:05;;;;;;;;;;;;;;;21.57;49.77;96181.00;10526611;28;1745;-74
2023/09/26 10:56:05;;;;;;;;;;;;;;;21.58;49.91;96171.22;10533067;28;1852;-76
2023/09/26 11:01:08;;;;;;;;;;;;;;;21.59;49.88;96178.09;10523335;28;1867;-75
2023/09/26 11:06:11;;;;;;;;;;;;;;;21.60;49.55;96187.56;10548538;27;1902;-74
2023/09/26 11:11:12;;;;;;;;;;;;;;;21.61;49.75;96191.78;10529786;28;1852;-76
2023/09/26 11:16:12;;;;;;;;;;;;;;;21.61;49.92;96175.97;10531357;28;1879;-76
2023/09/26 11:21:12;;;;;;;;;;;;;;;21.61;49.97;96168.84;10529748;28;2804;-76
2023/09/26 11:26:12;;;;;;;;;;;;;;;21.64;49.94;96178.03;10525569;28;1905;-77
2023/09/26 11:31:13;;;;;;;;;;;;;;;21.64;50.15;96162.22;10527253;28;1977;-77
2023/09/26 11:36:13;;;;;;;;;;;;;;;21.64;50.30;96156.94;10536485;28;1854;-76
2023/09/26 11:41:14;;;;;;;;;;;;;;;21.65;50.25;96153.25;10533275;28;1901;-77
2023/09/26 11:46:14;;;;;;;;;;;;;;;21.66;50.05;96149.53;10525960;28;1967;-76
2023/09/26 11:51:14;;;;;;;;;;;;;;;21.66;50.18;96144.28;10544295;27;1939;-75
2023/09/26 11:56:14;;;;;;;;;;;;;;;21.69;49.98;96149.00;10521626;28;1772;-71
2023/09/26 12:01:15;;;;;;;;;;;;;;;21.69;50.17;96141.09;10519560;28;2161;-74
2023/09/26 12:06:15;;;;;;;;;;;;;;;21.69;50.33;96130.53;10520562;28;2820;-75
2023/09/26 12:11:16;;;;;;;;;;;;;;;21.70;50.56;96137.41;10525005;28;2096;-75
2023/09/26 12:16:16;;;;;;;;;;;;;;;21.69;50.27;96136.63;10548230;27;1954;-79
2023/09/26 12:21:16;;;;;;;;;;;;;;;21.69;50.64;96130.53;10529781;28;1878;-76
2023/09/26 12:26:16;;;;;;;;;;;;;;;21.70;50.66;96122.34;10527675;28;1906;-75
2023/09/26 12:31:17;;;;;;;;;;;;;;;21.72;50.65;96122.09;10523094;28;1892;-78
2023/09/26 12:36:17;;;;;;;;;;;;;;;21.71;50.47;96115.22;10536746;28;1596;-79
2023/09/26 12:41:18;;;;;;;;;;;;;;;21.71;50.38;96116.03;10520472;28;4614;-75
2023/09/26 12:46:18;;;;;;;;;;;;;;;21.75;50.48;96119.69;10533248;28;1914;-73
2023/09/26 12:51:18;;;;;;;;;;;;;;;21.77;50.60;96103.59;10524420;28;2514;-82
2023/09/26 12:56:19;;;;;;;;;;;;;;;21.79;50.33;96106.75;10548088;27;1852;-73
2023/09/26 13:01:19;;;;;;;;;;;;;;;21.80;50.71;96103.06;10532752;28;1828;-73
2023/09/26 13:06:19;;;;;;;;;;;;;;;21.80;50.42;96095.16;10531685;28;1906;-73
2023/09/26 13:11:21;;;;;;;;;;;;;;;21.81;50.32;96086.16;10545874;27;1876;-72
2023/09/26 13:16:21;;;;;;;;;;;;;;;21.81;50.74;96088.78;10511328;28;1867;-73
2023/09/26 13:21:21;;;;;;;;;;;;;;;21.81;50.53;96088.78;10533892;28;2042;-73
2023/09/26 13:26:21;;;;;;;;;;;;;;;21.82;50.38;96090.41;10562955;27;1985;-73
2023/09/26 13:31:22;;;;;;;;;;;;;;;21.78;50.67;96095.41;10515648;28;1967;-73
2023/09/26 13:36:22;;;;;;;;;;;;;;;21.77;50.53;96085.91;10528877;28;2445;-75
2023/09/26 13:41:22;;;;;;;;;;;;;;;21.77;50.25;96082.47;10531181;28;4637;-74
2023/09/26 13:46:22;;;;;;;;;;;;;;;21.78;50.67;96081.44;10527496;28;2151;-74
2023/09/26 13:51:23;;;;;;;;;;;;;;;21.77;50.31;96079.84;10533513;28;2130;-73
2023/09/26 13:56:23;;;;;;;;;;;;;;;21.76;50.69;96073.78;10520986;28;2014;-74
2023/09/26 14:01:24;;;;;;;;;;;;;;;21.77;50.56;96070.09;10532198;28;1847;-72
2023/09/26 14:06:24;;;;;;;;;;;;;;;21.77;50.67;96072.72;10533486;28;2121;-73
2023/09/26 14:11:24;;;;;;;;;;;;;;;21.76;50.67;96068.50;10539609;28;2082;-73
2023/09/26 14:16:24;;;;;;;;;;;;;;;21.77;50.60;96066.66;10537899;28;1911;-74
2023/09/26 14:21:25;;;;;;;;;;;;;;;21.78;50.78;96073.53;10574960;27;2540;-74
2023/09/26 14:26:25;;;;;;;;;;;;;;;21.76;50.67;96068.50;10529488;28;1981;-74
2023/09/26 14:31:28;;;;;;;;;;;;;;;21.77;50.83;96064.00;10538220;28;1832;-74
2023/09/26 14:36:29;;;;;;;;;;;;;;;21.77;50.57;96066.66;10527873;28;1935;-74
2023/09/26 14:41:29;;;;;;;;;;;;;;;21.77;50.75;96069.28;10533737;28;4628;-74
2023/09/26 14:46:33;;;;;;;;;;;;;;;21.77;50.82;96074.56;10549015;28;2166;-73
2023/09/26 14:51:34;;;;;;;;;;;;;;;21.76;50.87;96073.00;10530825;28;1942;-73
2023/09/26 14:56:35;;;;;;;;;;;;;;;21.77;50.60;96074.56;10527569;28;2088;-74
2023/09/26 15:01:35;;;;;;;;;;;;;;;21.76;50.48;96075.63;10542220;28;1867;-73
2023/09/26 15:06:37;;;;;;;;;;;;;;;21.74;50.57;96065.34;10538580;28;2553;-74
2023/09/26 15:11:37;;;;;;;;;;;;;;;21.76;50.47;96070.38;10534366;28;1879;-73
2023/09/26 15:16:37;;;;;;;;;;;;;;;21.74;50.87;96059.28;10525162;28;1911;-74
2023/09/26 15:21:37;;;;;;;;;;;;;;;21.73;50.92;96069.06;10527798;28;2058;-74
2023/09/26 15:26:38;;;;;;;;;;;;;;;21.74;50.79;96072.50;10527475;28;2014;-73
2023/09/26 15:31:38;;;;;;;;;;;;;;;21.74;50.88;96073.25;10547129;27;1824;-74
2023/09/26 15:36:38;;;;;;;;;;;;;;;21.75;50.91;96076.69;10538086;28;1842;-73
2023/09/26 15:41:38;;;;;;;;;;;;;;;21.74;50.84;96078.53;10527541;28;4570;-72
2023/09/26 15:46:39;;;;;;;;;;;;;;;21.75;50.83;96077.47;10526843;28;1906;-74
2023/09/26 15:51:39;;;;;;;;;;;;;;;21.75;51.32;96081.97;10525414;28;2637;-73
2023/09/26 15:56:39;;;;;;;;;;;;;;;21.74;51.30;96075.88;10526558;28;1913;-74
2023/09/26 16:01:40;;;;;;;;;;;;;;;21.74;51.39;96081.16;10524054;28;1900;-73
2023/09/26 16:06:40;;;;;;;;;;;;;;;21.74;51.59;96080.41;10528388;28;1974;-74
2023/09/26 16:11:40;;;;;;;;;;;;;;;21.75;51.63;96074.03;10524434;28;1937;-74
2023/09/26 16:16:41;;;;;;;;;;;;;;;21.74;51.38;96080.41;10510231;28;1985;-74
2023/09/26 16:21:41;;;;;;;;;;;;;;;21.75;51.68;96076.69;10516201;28;2018;-73
2023/09/26 16:26:41;;;;;;;;;;;;;;;21.74;51.93;96083.81;10531217;28;1971;-73
2023/09/26 16:31:41;;;;;;;;;;;;;;;21.73;51.82;96084.09;10559584;27;1858;-73
2023/09/26 16:36:43;;;;;;;;;;;;;;;21.73;51.92;96087.53;10523680;28;2568;-73
2023/09/26 16:41:44;;;;;;;;;;;;;;;21.71;51.62;96091.50;10519794;28;4557;-73
2023/09/26 16:46:44;;;;;;;;;;;;;;;21.68;51.77;96094.66;10522139;28;1905;-72
2023/09/26 16:51:44;;;;;;;;;;;;;;;21.67;51.89;96098.38;10516815;28;1945;-69
2023/09/26 16:56:45;;;;;;;;;;;;;;;21.68;51.97;96098.09;10526518;28;1892;-71
2023/09/26 17:01:45;;;;;;;;;;;;;;;21.68;52.13;96098.09;10525293;28;1985;-71
2023/09/26 17:06:48;;;;;;;;;;;;;;;21.82;51.26;96103.59;10532472;28;1989;-69
2023/09/26 17:11:48;;;;;;;;;;;;;;;21.95;51.18;96102.22;10528022;28;1906;-68
2023/09/26 17:16:51;;;;;;;;;;;;;;;22.06;51.02;96103.72;10527139;28;1951;-67
2023/09/26 17:21:51;;;;;;;;;;;;;;;22.09;50.98;96103.94;10527055;28;2643;-68
2023/09/26 17:26:52;;;;;;;;;;;;;;;22.07;50.92;96115.88;10506380;28;1926;-68
2023/09/26 17:31:52;;;;;;;;;;;;;;;22.03;51.31;96114.84;10525520;28;1812;-68
2023/09/26 17:36:52;;;;;;;;;;;;;;;21.98;51.32;96115.66;10533052;28;1868;-68
2023/09/26 17:41:53;;;;;;;;;;;;;;;21.94;51.38;96119.91;10540707;28;1785;-68
2023/09/26 17:46:53;;;;;;;;;;;;;;;21.92;51.34;96123.88;10538678;28;1973;-68
2023/09/26 17:51:53;;;;;;;;;;;;;;;21.88;51.35;96120.19;10533689;28;2118;-68
2023/09/26 17:56:54;;;;;;;;;;;;;;;22.03;51.05;96123.53;10520109;28;1856;-67
2023/09/26 18:01:54;;;;;;;;;;;;;;;22.15;50.69;96128.47;10537970;28;1839;-69
2023/09/26 18:06:54;;;;;;;;;;;;;;;22.25;50.64;96123.13;10497844;28;2793;-72
2023/09/26 18:11:55;;;;;;;;;;;;;;;22.34;50.35;96122.25;10518439;28;1839;-75
2023/09/26 18:16:55;;;;;;;;;;;;;;;22.43;50.38;96122.47;10535037;28;1859;-70
2023/09/26 18:21:55;;;;;;;;;;;;;;;22.53;50.30;96132.94;10527585;28;2060;-72
2023/09/26 18:26:56;;;;;;;;;;;;;;;22.54;50.03;96137.19;10542173;28;1894;-73
2023/09/26 18:31:56;;;;;;;;;;;;;;;22.59;49.91;96145.88;10522740;28;1977;-74
2023/09/26 18:36:57;;;;;;;;;;;;;;;22.63;49.64;96149.53;10543669;28;1806;-68
2023/09/26 18:41:57;;;;;;;;;;;;;;;22.66;49.78;96145.56;10535685;28;1476;-77
2023/09/26 18:46:57;;;;;;;;;;;;;;;22.66;49.72;96145.56;10551852;28;1905;-73
2023/09/26 18:51:58;;;;;;;;;;;;;;;22.69;49.30;96152.16;10522154;28;1475;-72
2023/09/26 18:56:58;;;;;;;;;;;;;;;22.78;49.29;96150.47;10520799;28;3025;-74
2023/09/26 19:01:58;;;;;;;;;;;;;;;22.74;49.62;96152.09;10529946;28;1621;-71
2023/09/26 19:07:05;;;;;;;;;;;;;;;22.67;49.57;96149.75;10567810;27;1934;-70
2023/09/26 19:12:05;;;;;;;;;;;;;;;22.62;49.75;96153.25;10538586;28;2252;-71
2023/09/26 19:17:05;;;;;;;;;;;;;;;22.52;49.90;96157.81;10554593;27;1390;-71
2023/09/26 19:22:06;;;;;;;;;;;;;;;22.46;50.02;96158.91;10539378;28;1483;-71
2023/09/26 19:27:06;;;;;;;;;;;;;;;22.43;50.21;96157.59;10538847;28;1898;-71
2023/09/26 19:32:06;;;;;;;;;;;;;;;22.38;50.49;96162.91;10522234;28;1536;-72
2023/09/26 19:37:07;;;;;;;;;;;;;;;22.34;50.20;96159.22;10538235;28;1423;-70
2023/09/26 19:42:09;;;;;;;;;;;;;;;22.32;50.37;96166.63;10535924;28;4522;-71
2023/09/26 19:47:09;;;;;;;;;;;;;;;22.29;50.40;96167.19;10541954;28;1980;-70
2023/09/26 19:52:13;;;;;;;;;;;;;;;22.26;50.54;96165.09;10524566;28;1801;-71
2023/09/26 19:57:13;;;;;;;;;;;;;;;22.24;50.38;96175.16;10537027;28;1938;-70
2023/09/26 20:02:13;;;;;;;;;;;;;;;22.21;50.41;96174.91;10539732;28;1497;-69
2023/09/26 20:07:14;;;;;;;;;;;;;;;22.20;50.33;96176.75;10531689;28;1966;-70
2023/09/26 20:12:14;;;;;;;;;;;;;;;22.16;50.79;96167.81;10529037;28;1838;-70
2023/09/26 20:17:14;;;;;;;;;;;;;;;22.15;50.69;96166.25;10524349;28;1808;-72
2023/09/26 20:22:14;;;;;;;;;;;;;;;22.11;50.51;96170.50;10518918;28;1835;-71
2023/09/26 20:27:15;;;;;;;;;;;;;;;22.07;50.79;96174.72;10531505;28;2503;-75
2023/09/26 20:32:15;;;;;;;;;;;;;;;22.03;50.90;96180.81;10526602;28;1861;-74
2023/09/26 20:37:16;;;;;;;;;;;;;;;21.98;50.72;96176.34;10520049;28;1804;-74
2023/09/26 20:42:16;;;;;;;;;;;;;;;21.96;50.86;96178.47;10510182;28;4530;-74
2023/09/26 20:47:16;;;;;;;;;;;;;;;21.93;50.78;96176.38;10528501;28;1956;-75
2023/09/26 20:52:17;;;;;;;;;;;;;;;21.91;51.19;96175.09;10519584;28;2106;-75
2023/09/26 20:57:17;;;;;;;;;;;;;;;21.88;51.05;96177.19;10536977;28;1863;-75
2023/09/26 21:02:17;;;;;;;;;;;;;;;21.88;51.32;96176.41;10535734;28;1878;-75
2023/09/26 21:07:18;;;;;;;;;;;;;;;21.85;51.49;96182.22;10528480;28;1914;-75
2023/09/26 21:12:18;;;;;;;;;;;;;;;21.85;51.22;96188.28;10522176;28;2653;-75
2023/09/26 21:17:18;;;;;;;;;;;;;;;21.84;51.59;96196.50;10508643;28;1803;-75
2023/09/26 21:22:19;;;;;;;;;;;;;;;21.82;51.43;96186.19;10522642;28;2033;-75
2023/09/26 21:27:19;;;;;;;;;;;;;;;21.82;51.27;96196.75;10526523;28;1930;-75
2023/09/26 21:32:19;;;;;;;;;;;;;;;21.82;51.74;96188.06;10522937;28;1816;-75
2023/09/26 21:37:19;;;;;;;;;;;;;;;21.81;51.60;96189.06;10547365;28;1868;-75
2023/09/26 21:42:20;;;;;;;;;;;;;;;21.79;51.35;96193.81;10520308;28;4616;-76
2023/09/26 21:47:20;;;;;;;;;;;;;;;21.79;51.77;96199.91;10530079;28;2007;-76
2023/09/26 21:52:20;;;;;;;;;;;;;;;21.78;51.66;96197.53;10526913;28;1870;-76
2023/09/26 21:57:20;;;;;;;;;;;;;;;21.78;51.97;96197.53;10520678;28;2761;-76
2023/09/26 22:02:21;;;;;;;;;;;;;;;21.77;51.91;96188.81;10514569;28;2123;-76
2023/09/26 22:07:21;;;;;;;;;;;;;;;21.77;52.07;96194.09;10512320;28;1973;-76
2023/09/26 22:12:21;;;;;;;;;;;;;;;21.75;51.93;96196.22;10528863;28;1867;-76
2023/09/26 22:17:25;;;;;;;;;;;;;;;21.75;51.85;96193.59;10530938;28;2012;-75
2023/09/26 22:22:27;;;;;;;;;;;;;;;21.73;51.80;96190.44;10536597;28;1819;-74
2023/09/26 22:27:28;;;;;;;;;;;;;;;21.74;52.00;96189.34;10513467;28;1973;-75
2023/09/26 22:32:28;;;;;;;;;;;;;;;21.73;51.94;96185.16;10540997;28;1927;-75
2023/09/26 22:37:28;;;;;;;;;;;;;;;21.72;51.97;96188.06;10521791;28;1828;-76
2023/09/26 22:42:28;;;;;;;;;;;;;;;21.72;51.97;96182.78;10543587;28;4549;-75
2023/09/26 22:47:30;;;;;;;;;;;;;;;21.71;52.02;96186.47;10526385;28;1917;-75
2023/09/26 22:52:33;;;;;;;;;;;;;;;21.70;51.78;96190.94;10531296;28;1677;-75
2023/09/26 22:57:33;;;;;;;;;;;;;;;21.70;51.96;96190.94;10537199;28;1757;-75
2023/09/26 23:02:34;;;;;;;;;;;;;;;21.69;51.75;96183.31;10528081;28;1818;-75
2023/09/26 23:07:35;;;;;;;;;;;;;;;21.68;51.83;96182.53;10540249;28;1906;-75
2023/09/26 23:12:35;;;;;;;;;;;;;;;21.69;51.89;96178.03;10527724;28;2967;-74
2023/09/26 23:17:37;;;;;;;;;;;;;;;21.68;51.87;96181.72;10546972;28;1896;-74
2023/09/26 23:22:37;;;;;;;;;;;;;;;21.66;52.02;96168.81;10533826;28;1933;-75
2023/09/26 23:27:38;;;;;;;;;;;;;;;21.67;51.83;96177.53;10530047;28;1906;-75
2023/09/26 23:32:38;;;;;;;;;;;;;;;21.67;51.92;96182.78;10535171;28;1859;-75
2023/09/26 23:37:39;;;;;;;;;;;;;;;21.67;51.70;96180.16;10534312;28;1819;-73
2023/09/26 23:42:39;;;;;;;;;;;;;;;21.65;51.79;96182.28;10526699;28;4566;-75
2023/09/26 23:47:40;;;;;;;;;;;;;;;21.65;51.59;96179.63;10556273;27;1905;-75
2023/09/26 23:52:40;;;;;;;;;;;;;;;21.65;51.67;96187.56;10529512;28;1883;-74
2023/09/26 23:57:40;;;;;;;;;;;;;;;21.64;51.80;96186.75;10530515;28;3063;-74
